Main page
METAR-TAF:

METAR-TAF

Airports :

Sleipner, Norway

Oil platform

latitude: 58-22-00N, longitude: 001-54-25E, elevation: 50 m

Current weather observation

The report was made 32 minutes ago, at 17:20 UTC
Wind 13 kt from the North/Northeast
Temperature 8°C
Humidity 53%
Pressure 1014 hPa
Visibility 10 km or more

METAR: ENSL 281720Z AUTO 02013KT 9999NDV BKN028/// 08/M01 Q1014 W06/S3

Time: 19:52 (17:52 UTC)

Forecast

The report was made 6 hours and 52 minutes ago, at 11:00 UTC
Forecast valid from 28 at 12 UTC to 28 at 17 UTC
Wind 18 kt from the East/Northeast
Visibility 10 km or more
Few clouds at a height of 2000 ft
Scattered clouds at a height of 5000 ft
Becoming
from 28 at 14 UTC to 28 at 16 UTC
Wind 15 kt from the North

TAF: ENSL 281100Z 2812/2817 07018KT 9999 FEW020 SCT050 BECMG 2814/2816 01015KT

Weather observations and forecasts of more than 4000 airports (METAR and TAF reports).

The available stations are represented by yellow and red dots on the map.

Hover mouse over dot to see the name of the station.

Then click to see weather observations and forecasts.

To change the map : click on the green buttons with a black cross to zoom in, on the green button with a dash to zoom out, or on the green arrows for adjacent maps.


METAR-TAF: